Time;durP1;ratioP1;P1;durP2;ratioP2;P2;SDS_P1;SDS_P2;PMS_P1;PMS_P2;Temp;Humidity;BMP_temperature;BMP_pressure;BME280_temperature;BME280_humidity;BME280_pressure;Samples;Min_cycle;Max_cycle;Signal;HPM_P1;HPM_P2
2022/03/30 00:00:12;;;;;;;41.03;19.42;;;;;;;2.58;100.00;161244.53;5073321;28;20494;-57
2022/03/30 00:02:37;;;;;;;41.75;22.55;;;;;;;2.45;100.00;161210.94;5072318;28;20051;-57
2022/03/30 00:05:03;;;;;;;39.05;20.95;;;;;;;2.38;100.00;161192.16;5073412;28;20020;-57
2022/03/30 00:07:31;;;;;;;38.58;22.73;;;;;;;2.36;100.00;161186.75;5071814;28;20044;-57
2022/03/30 00:09:58;;;;;;;42.65;22.17;;;;;;;2.36;100.00;161186.75;5073603;28;20040;-57
2022/03/30 00:12:23;;;;;;;39.40;22.95;;;;;;;2.36;100.00;161186.75;5071474;28;20131;-57
2022/03/30 00:14:49;;;;;;;43.70;22.33;;;;;;;2.34;100.00;161182.75;5073791;28;20529;-57
2022/03/30 00:17:14;;;;;;;40.38;22.63;;;;;;;2.34;100.00;161182.75;5071354;28;20048;-57
2022/03/30 00:19:39;;;;;;;50.08;25.38;;;;;;;2.33;100.00;161178.75;5072527;28;20024;-57
2022/03/30 00:22:05;;;;;;;43.10;22.30;;;;;;;2.31;100.00;161173.34;5071866;28;20052;-57
2022/03/30 00:24:30;;;;;;;37.20;21.98;;;;;;;2.30;100.00;161170.66;5072977;28;20020;-58
2022/03/30 00:26:55;;;;;;;46.88;24.38;;;;;;;2.27;100.00;161162.66;5071387;28;20388;-58
2022/03/30 00:29:21;;;;;;;40.22;24.08;;;;;;;2.20;100.00;161146.50;5072902;28;20043;-59
2022/03/30 00:31:46;;;;;;;40.05;20.83;;;;;;;2.10;100.00;161119.69;5071716;28;20048;-59
2022/03/30 00:34:11;;;;;;;29.40;18.02;;;;;;;1.94;100.00;161076.72;5072752;28;20024;-59
2022/03/30 00:36:37;;;;;;;51.65;22.30;;;;;;;1.72;100.00;161020.38;5071739;28;20044;-59
2022/03/30 00:39:02;;;;;;;39.13;20.35;;;;;;;1.47;100.00;160954.63;5073188;28;20464;-58
2022/03/30 00:41:29;;;;;;;41.95;25.00;;;;;;;1.21;100.00;160888.91;5068575;28;20462;-58
2022/03/30 00:43:54;;;;;;;38.58;19.70;;;;;;;1.10;100.00;160859.38;5071878;28;20029;-58
2022/03/30 00:46:20;;;;;;;36.35;19.38;;;;;;;0.99;100.00;160831.22;5071289;28;20093;-58
2022/03/30 00:48:45;;;;;;;37.40;20.23;;;;;;;0.87;100.00;160799.06;5073281;28;20021;-58
2022/03/30 00:51:11;;;;;;;31.73;20.00;;;;;;;0.67;100.00;160746.75;5070915;28;20111;-58
2022/03/30 00:53:36;;;;;;;37.00;21.88;;;;;;;0.69;100.00;160752.13;5073063;28;20074;-58
2022/03/30 00:56:03;;;;;;;37.78;20.67;;;;;;;0.64;100.00;160740.06;5071092;28;20468;-58
2022/03/30 00:58:29;;;;;;;37.30;23.17;;;;;;;0.60;100.00;160730.66;5071822;28;20036;-58
2022/03/30 01:00:55;;;;;;;44.13;22.13;;;;;;;0.59;100.00;160727.97;5071387;28;20028;-58
2022/03/30 01:03:20;;;;;;;60.22;23.73;;;;;;;0.64;100.00;160740.06;5072435;28;20107;-57
2022/03/30 01:05:46;;;;;;;49.85;27.20;;;;;;;0.84;100.00;160790.97;5072333;28;20066;-58
2022/03/30 01:08:12;;;;;;;41.17;24.10;;;;;;;0.90;100.00;160808.44;5070741;28;20056;-57
2022/03/30 01:10:37;;;;;;;45.75;24.27;;;;;;;0.81;100.00;160784.28;5072478;28;20095;-58
2022/03/30 01:13:05;;;;;;;49.70;25.80;;;;;;;1.10;100.00;160859.38;5070481;28;20044;-57
2022/03/30 01:15:31;;;;;;;45.13;25.85;;;;;;;1.15;100.00;160872.81;5071978;28;20467;-57
2022/03/30 01:17:56;;;;;;;45.67;23.83;;;;;;;1.14;100.00;160870.13;5071204;28;20041;-57
2022/03/30 01:20:23;;;;;;;65.43;29.83;;;;;;;1.30;100.00;160911.69;5071999;28;20024;-58
2022/03/30 01:22:49;;;;;;;59.50;27.00;;;;;;;1.26;100.00;160902.31;5070753;28;20048;-57
2022/03/30 01:25:14;;;;;;;52.97;26.27;;;;;;;1.44;100.00;160947.94;5071362;28;20029;-58
2022/03/30 01:27:40;;;;;;;42.33;25.77;;;;;;;1.47;100.00;160955.97;5070147;28;20044;-57
2022/03/30 01:32:59;;;;;;;51.45;26.17;;;;;;;1.49;100.00;160961.34;5070432;28;20051;-58
2022/03/30 01:35:24;;;;;;;37.65;22.20;;;;;;;1.51;100.00;160966.72;5071442;28;20514;-57
2022/03/30 01:37:50;;;;;;;55.00;26.60;;;;;;;1.55;100.00;160977.44;5070414;28;20044;-57
2022/03/30 01:40:15;;;;;;;48.03;24.95;;;;;;;1.54;100.00;160973.41;5071965;28;20012;-57
2022/03/30 01:42:41;;;;;;;44.37;24.70;;;;;;;1.54;100.00;160974.75;5069650;28;20564;-58
2022/03/30 01:45:08;;;;;;;42.78;24.15;;;;;;;1.34;100.00;160921.09;5071893;28;20495;-57
2022/03/30 01:47:34;;;;;;;46.67;22.23;;;;;;;1.42;100.00;160943.88;5070289;28;20048;-57
2022/03/30 01:49:59;;;;;;;40.53;24.25;;;;;;;1.28;100.00;160906.31;5070397;28;20439;-57
2022/03/30 01:52:25;;;;;;;33.58;20.38;;;;;;;1.10;100.00;160859.38;5070038;28;20068;-57
2022/03/30 01:54:50;;;;;;;41.40;23.88;;;;;;;0.79;100.00;160778.91;5071799;28;20012;-57
2022/03/30 01:57:15;;;;;;;44.00;22.35;;;;;;;0.53;100.00;160710.53;5069535;28;20410;-57
2022/03/30 01:59:42;;;;;;;39.95;22.73;;;;;;;0.34;100.00;160662.31;5071230;28;20043;-57
2022/03/30 02:02:08;;;;;;;38.97;23.13;;;;;;;0.04;100.00;160583.25;5069796;28;20040;-57
2022/03/30 02:04:36;;;;;;;37.85;20.65;;;;;;;0.09;100.00;160596.63;5071070;28;20028;-57
2022/03/30 02:07:02;;;;;;;39.38;22.65;;;;;;;0.04;100.00;160583.25;5069941;28;20044;-58
2022/03/30 02:09:28;;;;;;;43.67;22.40;;;;;;;-0.01;100.00;160572.50;5071051;28;20056;-57
2022/03/30 02:11:54;;;;;;;35.67;22.77;;;;;;;-0.08;100.00;160553.75;5069633;28;20037;-58
2022/03/30 02:14:20;;;;;;;44.80;23.27;;;;;;;-0.20;100.00;160521.59;5070754;28;20070;-57
2022/03/30 02:16:46;;;;;;;38.53;23.95;;;;;;;-0.25;100.00;160509.53;5069684;28;20043;-57
2022/03/30 02:19:11;;;;;;;39.03;22.52;;;;;;;-0.12;100.00;160541.69;5071151;28;20024;-58
2022/03/30 02:21:37;;;;;;;50.63;25.90;;;;;;;-0.06;100.00;160557.75;5069783;28;20464;-58
2022/03/30 02:24:02;;;;;;;54.50;27.35;;;;;;;0.10;100.00;160599.31;5071322;28;20028;-57
2022/03/30 02:26:30;;;;;;;51.42;25.55;;;;;;;0.42;100.00;160682.38;5068898;28;20498;-58
2022/03/30 02:28:55;;;;;;;57.17;28.75;;;;;;;0.53;100.00;160711.91;5070929;28;20025;-57
2022/03/30 02:31:22;;;;;;;63.28;31.17;;;;;;;0.62;100.00;160734.69;5069478;28;20110;-57
2022/03/30 02:33:48;;;;;;;46.88;27.63;;;;;;;0.69;100.00;160752.13;5071022;28;20044;-57
2022/03/30 02:36:14;;;;;;;48.17;29.75;;;;;;;0.69;100.00;160752.13;5069101;28;20044;-58
2022/03/30 02:38:40;;;;;;;56.65;29.90;;;;;;;0.54;100.00;160714.59;5071307;28;20028;-57
2022/03/30 02:41:06;;;;;;;55.25;30.60;;;;;;;0.69;100.00;160753.44;5069178;28;20581;-57
2022/03/30 02:43:33;;;;;;;60.10;33.42;;;;;;;0.72;100.00;160760.13;5070150;28;20029;-57
2022/03/30 02:45:58;;;;;;;58.85;30.48;;;;;;;0.73;100.00;160762.84;5069550;28;20551;-57
2022/03/30 02:48:28;;;;;;;45.80;28.10;;;;;;;0.52;100.00;160709.22;5070421;28;20033;-57
2022/03/30 02:50:56;;;;;;;46.70;27.33;;;;;;;0.67;100.00;160746.75;5070085;28;20070;-57
2022/03/30 02:53:23;;;;;;;58.45;30.83;;;;;;;0.69;100.00;160752.13;5070570;28;20494;-58
2022/03/30 02:55:48;;;;;;;69.60;35.85;;;;;;;0.71;100.00;160757.50;5070245;28;20096;-57
2022/03/30 02:58:14;;;;;;;65.18;31.92;;;;;;;0.69;100.00;160753.44;5068863;28;20195;-57
2022/03/30 03:00:41;;;;;;;64.65;33.78;;;;;;;0.66;100.00;160744.06;5070664;28;20032;-57
2022/03/30 03:03:10;;;;;;;51.88;27.38;;;;;;;0.68;100.00;160749.44;5068904;28;20047;-57
2022/03/30 03:05:35;;;;;;;;;;;;;;;0.68;100.00;160749.44;5071335;28;20108;-57
2022/03/30 03:08:02;;;;;;;57.70;33.47;;;;;;;0.67;100.00;160748.06;5068934;28;20542;-58
2022/03/30 03:10:28;;;;;;;54.10;32.80;;;;;;;0.51;100.00;160705.22;5069924;28;20030;-57
2022/03/30 03:12:54;;;;;;;60.97;32.90;;;;;;;0.60;100.00;160730.66;5069289;28;20078;-57
2022/03/30 03:15:21;;;;;;;56.20;28.83;;;;;;;0.59;100.00;160727.97;5070291;28;20094;-58
2022/03/30 03:17:46;;;;;;;44.97;27.52;;;;;;;0.56;100.00;160718.59;5068560;28;20389;-57
2022/03/30 03:20:12;;;;;;;54.17;31.63;;;;;;;0.46;100.00;160694.44;5070280;28;20055;-57
2022/03/30 03:22:38;;;;;;;62.97;32.85;;;;;;;0.39;100.00;160674.38;5069083;28;20051;-57
2022/03/30 03:25:05;;;;;;;79.57;35.05;;;;;;;0.24;100.00;160636.84;5069941;28;20476;-57
2022/03/30 03:27:30;;;;;;;73.22;33.35;;;;;;;0.43;100.00;160685.06;5068413;28;20041;-57
2022/03/30 03:29:55;;;;;;;72.28;35.28;;;;;;;0.49;100.00;160701.16;5070447;28;20033;-57
2022/03/30 03:32:21;;;;;;;58.88;31.77;;;;;;;0.51;100.00;160706.53;5068517;28;20036;-57
2022/03/30 03:34:46;;;;;;;76.78;34.20;;;;;;;0.51;100.00;160705.22;5070288;28;20516;-58
2022/03/30 03:37:11;;;;;;;60.10;34.45;;;;;;;0.48;100.00;160698.50;5068627;28;20052;-57
2022/03/30 03:39:37;;;;;;;57.50;32.80;;;;;;;0.44;100.00;160687.75;5069959;28;20020;-57
2022/03/30 03:42:02;;;;;;;58.97;32.47;;;;;;;0.35;100.00;160665.00;5068780;28;20043;-57
2022/03/30 03:44:28;;;;;;;59.65;29.80;;;;;;;0.31;100.00;160655.59;5070388;28;20060;-57
2022/03/30 03:46:54;;;;;;;56.45;31.13;;;;;;;0.29;100.00;160650.22;5068685;28;20045;-57
2022/03/30 03:49:20;;;;;;;70.50;33.15;;;;;;;0.42;100.00;160682.38;5069928;28;20104;-57
2022/03/30 03:51:46;;;;;;;64.53;33.63;;;;;;;0.43;100.00;160685.06;5068828;28;20062;-57
2022/03/30 03:54:11;;;;;;;47.45;31.77;;;;;;;0.41;100.00;160681.06;5070724;28;20027;-57
2022/03/30 03:56:36;;;;;;;44.50;29.00;;;;;;;0.33;100.00;160658.28;5071803;28;20411;-57
2022/03/30 03:59:02;;;;;;;52.05;29.58;;;;;;;0.20;100.00;160626.09;5074118;28;20024;-57
2022/03/30 04:01:29;;;;;;;62.83;30.58;;;;;;;0.09;100.00;160597.94;5071404;28;20092;-57
2022/03/30 04:03:55;;;;;;;57.53;31.55;;;;;;;0.01;100.00;160575.19;5073663;28;20031;-58
2022/03/30 04:06:21;;;;;;;63.40;32.20;;;;;;;-0.04;100.00;160563.13;5071975;28;20032;-57
2022/03/30 04:08:47;;;;;;;53.42;31.30;;;;;;;-0.06;100.00;160559.13;5072903;28;20547;-57
2022/03/30 04:11:13;;;;;;;67.57;32.33;;;;;;;-0.09;100.00;160549.72;5072215;28;20047;-58
2022/03/30 04:13:39;;;;;;;53.55;30.70;;;;;;;-0.03;100.00;160567.13;5072922;28;20026;-57
2022/03/30 04:16:05;;;;;;;58.53;30.63;;;;;;;0.04;100.00;160583.25;5071169;28;20029;-57
2022/03/30 04:18:30;;;;;;;75.03;39.13;;;;;;;-0.02;100.00;160568.50;5073289;28;20028;-55
2022/03/30 04:20:55;;;;;;;56.28;30.83;;;;;;;-0.05;100.00;160561.81;5072132;28;20405;-57
2022/03/30 04:23:21;;;;;;;195.65;110.93;;;;;;;-0.11;100.00;160545.69;5072619;28;20029;-57
2022/03/30 04:25:46;;;;;;;118.20;69.25;;;;;;;-0.17;100.00;160529.59;5073255;28;20025;-57
2022/03/30 04:28:14;;;;;;;65.30;36.22;;;;;;;-0.40;100.00;160470.66;5071757;28;20491;-57
2022/03/30 04:30:39;;;;;;;57.97;27.63;;;;;;;-0.25;100.00;160508.16;5073606;28;20077;-57
2022/03/30 04:33:05;;;;;;;65.10;35.70;;;;;;;-0.27;100.00;160502.84;5071705;28;20120;-57
2022/03/30 04:35:30;;;;;;;56.50;34.17;;;;;;;-0.30;100.00;160496.16;5072775;28;20032;-57
2022/03/30 04:37:56;;;;;;;67.82;32.33;;;;;;;-0.34;100.00;160486.78;5071426;28;20044;-57
2022/03/30 04:40:23;;;;;;;63.33;35.92;;;;;;;-0.36;100.00;160480.03;5072044;28;20495;-57
2022/03/30 04:42:49;;;;;;;50.90;29.77;;;;;;;-0.40;100.00;160470.66;5071649;28;20041;-57
2022/03/30 04:45:15;;;;;;;50.03;26.92;;;;;;;-0.42;100.00;160465.34;5072589;28;20032;-57
2022/03/30 04:47:40;;;;;;;47.22;22.05;;;;;;;-0.60;100.00;160418.44;5071422;28;20040;-57
2022/03/30 04:50:06;;;;;;;49.08;24.92;;;;;;;-0.86;100.00;160350.16;5072064;28;20411;-57
2022/03/30 04:52:32;;;;;;;50.63;24.60;;;;;;;-1.12;100.00;160283.16;5071472;28;20040;-57
2022/03/30 04:54:58;;;;;;;48.38;26.58;;;;;;;-1.32;100.00;160232.31;5071335;28;20438;-57
2022/03/30 04:57:23;;;;;;;46.35;27.98;;;;;;;-1.47;100.00;160192.13;5071097;28;20123;-57
2022/03/30 04:59:49;;;;;;;51.88;28.45;;;;;;;-1.46;100.00;160194.81;5073067;28;20047;-57
2022/03/30 05:02:14;;;;;;;46.10;25.40;;;;;;;-1.55;100.00;160170.72;5070960;28;20044;-57
2022/03/30 05:04:39;;;;;;;41.63;25.27;;;;;;;-1.66;100.00;160143.94;5072495;28;20029;-57
2022/03/30 05:07:05;;;;;;;66.93;25.40;;;;;;;-1.83;100.00;160098.47;5070160;28;20040;-57
2022/03/30 05:09:30;;;;;;;53.53;26.05;;;;;;;-2.02;100.00;160050.25;5072121;28;20422;-57
2022/03/30 05:11:56;;;;;;;57.58;28.05;;;;;;;-2.06;100.00;160039.56;5071292;28;20036;-57
2022/03/30 05:14:21;;;;;;;41.50;25.60;;;;;;;-2.05;100.00;160042.25;5072439;28;20032;-57
2022/03/30 05:16:47;;;;;;;37.28;21.88;;;;;;;-2.05;100.00;160042.25;5070729;28;20043;-57
2022/03/30 05:19:12;;;;;;;44.60;26.45;;;;;;;-2.05;100.00;160040.91;5072085;28;20024;-57
2022/03/30 05:21:38;;;;;;;44.65;24.83;;;;;;;-2.02;100.00;160048.94;5071095;28;20044;-59
2022/03/30 05:24:04;;;;;;;41.47;23.42;;;;;;;-2.00;100.00;160055.63;5072081;28;20024;-57
2022/03/30 05:26:29;;;;;;;66.93;29.10;;;;;;;-2.11;100.00;160026.16;5070727;28;20040;-57
2022/03/30 05:28:54;;;;;;;51.90;28.85;;;;;;;-1.83;100.00;160099.78;5072349;28;20031;-57
2022/03/30 05:31:20;;;;;;;57.53;30.83;;;;;;;-1.71;100.00;160130.56;5070140;28;20033;-58
2022/03/30 05:33:46;;;;;;;66.30;31.05;;;;;;;-1.72;100.00;160127.88;5072193;28;20116;-57
2022/03/30 05:36:12;;;;;;;49.03;27.50;;;;;;;-1.53;100.00;160176.09;5070411;28;20031;-57
2022/03/30 05:38:38;;;;;;;61.85;29.10;;;;;;;-1.48;100.00;160189.47;5071904;28;20441;-57
2022/03/30 05:41:04;;;;;;;50.25;26.38;;;;;;;-1.45;100.00;160197.47;5070594;28;20098;-57
2022/03/30 05:43:29;;;;;;;51.70;32.35;;;;;;;-1.43;100.00;160202.81;5071519;28;20028;-59
2022/03/30 05:45:54;;;;;;;56.33;29.98;;;;;;;-1.42;100.00;160204.19;5069987;28;20028;-57
2022/03/30 05:48:20;;;;;;;60.38;31.40;;;;;;;-1.24;100.00;160251.03;5071739;28;20032;-58
2022/03/30 05:50:45;;;;;;;58.47;31.48;;;;;;;-1.16;100.00;160272.47;5071651;28;20630;-59
2022/03/30 05:53:13;;;;;;;60.25;32.35;;;;;;;-1.05;100.00;160301.91;5058261;28;20120;-58
2022/03/30 05:55:39;;;;;;;59.40;31.63;;;;;;;-1.07;100.00;160296.53;5061665;28;20078;-55
2022/03/30 05:58:05;;;;;;;69.20;35.30;;;;;;;-1.11;100.00;160285.84;5059924;28;20045;-55
2022/03/30 06:00:30;;;;;;;61.10;38.10;;;;;;;-0.77;100.00;160374.22;5059479;28;20021;-57
2022/03/30 06:02:55;;;;;;;65.70;33.95;;;;;;;-0.62;100.00;160411.72;5060508;28;20047;-56
2022/03/30 06:05:21;;;;;;;75.43;34.22;;;;;;;-0.52;100.00;160438.53;5060815;28;20031;-55
2022/03/30 06:07:46;;;;;;;67.47;38.58;;;;;;;-0.42;100.00;160465.34;5055748;28;20392;-55
2022/03/30 06:10:12;;;;;;;73.32;35.22;;;;;;;-0.22;100.00;160516.22;5051479;28;20059;-55
2022/03/30 06:12:38;;;;;;;67.55;36.78;;;;;;;-0.10;100.00;160548.38;5050102;28;20037;-54
2022/03/30 06:15:04;;;;;;;71.43;38.10;;;;;;;0.07;100.00;160591.25;5051046;28;20017;-55
2022/03/30 06:17:29;;;;;;;93.15;38.38;;;;;;;0.24;100.00;160636.84;5049113;28;20128;-55
2022/03/30 06:19:57;;;;;;;70.60;37.05;;;;;;;0.51;100.00;160705.22;5050984;28;20017;-54
2022/03/30 06:22:25;;;;;;;60.58;33.50;;;;;;;0.74;100.00;160765.53;5048982;28;20044;-55
2022/03/30 06:24:51;;;;;;;55.65;32.90;;;;;;;1.05;100.00;160845.97;5049341;28;20025;-55
2022/03/30 06:27:17;;;;;;;63.22;30.48;;;;;;;1.26;100.00;160902.31;5048889;28;20094;-55
2022/03/30 06:29:42;;;;;;;61.30;32.67;;;;;;;1.41;100.00;160939.88;5050227;28;20016;-55
2022/03/30 06:32:08;;;;;;;47.05;26.10;;;;;;;1.64;100.00;161000.22;5048927;28;20041;-55
2022/03/30 06:34:35;;;;;;;48.55;25.65;;;;;;;1.77;100.00;161033.78;5050529;28;20172;-55
2022/03/30 06:37:00;;;;;;;55.22;30.75;;;;;;;1.77;100.00;161033.78;5048091;28;20057;-55
2022/03/30 06:39:26;;;;;;;50.85;29.70;;;;;;;1.86;100.00;161056.63;5050661;28;20060;-55
2022/03/30 06:41:52;;;;;;;46.03;29.38;;;;;;;2.26;100.00;161159.94;5049651;28;20041;-55
2022/03/30 06:44:17;;;;;;;70.47;32.45;;;;;;;2.44;100.00;161206.94;5050410;28;20127;-55
2022/03/30 06:46:43;;;;;;;56.03;34.40;;;;;;;2.54;100.00;161233.75;5049430;28;20033;-55
2022/03/30 06:49:11;;;;;;;64.00;31.88;;;;;;;2.48;100.00;161219.03;5050884;28;20036;-55
2022/03/30 06:51:38;;;;;;;40.10;27.67;;;;;;;2.70;100.00;161275.41;5049305;28;20029;-57
2022/03/30 06:54:03;;;;;;;48.58;27.23;;;;;;;2.68;100.00;161271.34;5050953;28;20408;-55
2022/03/30 06:56:29;;;;;;;52.22;28.30;;;;;;;2.66;100.00;161264.63;5049144;28;20040;-55
2022/03/30 06:58:54;;;;;;;46.88;27.83;;;;;;;2.64;100.00;161259.31;5050586;28;20029;-55
2022/03/30 07:01:20;;;;;;;51.65;28.45;;;;;;;2.62;100.00;161255.25;5049359;28;20037;-55
2022/03/30 07:03:46;;;;;;;57.15;28.70;;;;;;;2.52;100.00;161229.75;5050652;28;20033;-55
2022/03/30 07:06:12;;;;;;;47.28;28.45;;;;;;;2.67;100.00;161267.31;5049163;28;20044;-55
2022/03/30 07:11:22;;;;;;;54.92;30.45;;;;;;;2.79;100.00;161299.53;5049057;28;20051;-55
2022/03/30 07:13:47;;;;;;;44.05;24.75;;;;;;;2.84;100.00;161311.63;5050534;28;20017;-55
2022/03/30 07:16:13;;;;;;;48.55;25.10;;;;;;;2.94;100.00;161338.50;5048997;28;20052;-55
2022/03/30 07:18:38;;;;;;;47.95;25.85;;;;;;;2.91;100.00;161329.09;5050887;28;20472;-55
2022/03/30 07:21:04;;;;;;;43.38;27.25;;;;;;;2.99;100.00;161351.91;5049007;28;20507;-55
2022/03/30 07:23:29;;;;;;;47.03;30.33;;;;;;;3.15;100.00;161393.59;5050409;28;20025;-55
2022/03/30 07:25:56;;;;;;;42.88;25.63;;;;;;;3.16;100.00;161394.91;5049152;28;20087;-55
2022/03/30 07:28:22;;;;;;;44.22;26.65;;;;;;;3.31;100.00;161433.88;5050523;28;20021;-55
2022/03/30 07:30:50;;;;;;;49.05;28.00;;;;;;;3.52;100.00;161487.59;5054092;28;20021;-55
2022/03/30 07:33:16;;;;;;;41.38;25.88;;;;;;;3.57;100.00;161502.41;5052791;28;20403;-55
2022/03/30 07:35:46;;;;;;;39.53;28.23;;;;;;;3.78;100.00;161556.13;5054641;28;20421;-55
2022/03/30 07:38:13;;;;;;;42.90;26.08;;;;;;;4.08;100.00;161634.06;5052411;28;20068;-55
2022/03/30 07:40:38;;;;;;;38.67;23.13;;;;;;;4.17;100.00;161656.91;5054378;28;20100;-55
2022/03/30 07:43:04;;;;;;;37.45;24.13;;;;;;;4.33;100.00;161699.94;5053044;28;20041;-55
2022/03/30 07:45:29;;;;;;;48.90;27.73;;;;;;;4.60;100.00;161771.19;5053746;28;20036;-55
2022/03/30 07:47:54;;;;;;;37.00;23.33;;;;;;;4.57;100.00;161761.78;5052835;28;20049;-55
2022/03/30 07:50:20;;;;;;;51.05;26.42;;;;;;;4.81;100.00;161823.59;5054151;28;20017;-55
2022/03/30 07:52:46;;;;;;;52.50;22.75;;;;;;;5.33;100.00;161960.78;5052616;28;20045;-55
2022/03/30 07:55:12;;;;;;;49.47;23.05;;;;;;;5.72;100.00;162063.03;5053920;28;20017;-56
2022/03/30 07:57:39;;;;;;;37.60;21.35;;;;;;;5.86;100.00;162098.00;5052859;28;20041;-55
2022/03/30 08:00:09;;;;;;;44.88;21.88;;;;;;;5.72;100.00;162063.03;5053542;28;20480;-55
2022/03/30 08:02:35;;;;;;;43.97;22.38;;;;;;;5.93;100.00;162116.84;5052596;28;20064;-55
2022/03/30 08:05:00;;;;;;;40.10;24.00;;;;;;;6.07;100.00;162151.94;5053997;28;20017;-55
2022/03/30 08:07:32;;;;;;;41.53;23.90;;;;;;;6.18;100.00;162181.50;5051989;28;20041;-55
2022/03/30 08:09:58;;;;;;;49.95;25.35;;;;;;;6.27;100.00;162204.38;5053783;28;20079;-55
2022/03/30 08:12:25;;;;;;;126.63;64.80;;;;;;;6.86;100.00;162359.22;5052171;28;20065;-55
2022/03/30 08:14:50;;;;;;;36.80;23.23;;;;;;;7.32;100.00;162477.75;5053531;28;20029;-55
2022/03/30 08:17:16;;;;;;;38.50;20.98;;;;;;;7.59;100.00;162550.47;5051894;28;20102;-55
2022/03/30 08:19:41;;;;;;;36.80;20.58;;;;;;;8.70;100.00;162838.91;5053788;28;20025;-55
2022/03/30 08:25:12;;;;;;;33.10;18.40;;;;;;;8.95;100.00;162904.97;5053523;28;20035;-56
2022/03/30 08:27:37;;;;;;;34.85;18.58;;;;;;;9.41;100.00;163023.66;5051967;28;20033;-55
2022/03/30 08:30:05;;;;;;;33.78;17.65;;;;;;;10.04;100.00;163188.25;5053135;28;20029;-55
2022/03/30 08:32:31;;;;;;;32.00;17.33;;;;;;;8.97;100.00;162909.06;5051897;28;20500;-55
2022/03/30 08:34:56;;;;;;;31.92;17.77;;;;;;;8.53;100.00;162795.75;5053506;28;20025;-55
2022/03/30 08:37:23;;;;;;;28.13;18.67;;;;;;;8.65;100.00;162826.78;5051311;28;20412;-55
2022/03/30 08:39:49;;;;;;;26.35;18.52;;;;;;;7.72;100.00;162584.16;5052983;28;20123;-55
2022/03/30 08:42:17;;;;;;;34.25;17.08;;;;;;;7.59;100.00;162550.47;5051612;28;20071;-55
2022/03/30 08:44:43;;;;;;;26.35;17.85;;;;;;;7.39;100.00;162496.59;5052805;28;20031;-55
2022/03/30 08:47:11;;;;;;;31.30;20.33;;;;;;;7.39;100.00;162496.59;5051677;28;20555;-55
2022/03/30 08:49:37;;;;;;;31.27;17.40;;;;;;;7.45;100.00;162512.75;5053242;28;20060;-55
2022/03/30 08:52:05;;;;;;;34.38;18.27;;;;;;;7.29;100.00;162472.34;5051354;28;20060;-55
2022/03/30 08:54:31;;;;;;;31.50;17.60;;;;;;;7.03;100.00;162402.31;5052862;28;20021;-55
2022/03/30 08:56:57;;;;;;;31.30;18.35;;;;;;;7.26;100.00;162464.22;5051448;28;20033;-55
2022/03/30 08:59:23;;;;;;;27.20;16.95;;;;;;;7.52;100.00;162531.59;5051272;28;20036;-55
2022/03/30 09:01:49;;;;;;;39.83;20.20;;;;;;;7.80;100.00;162603.03;5051447;28;20033;-55
2022/03/30 09:04:16;;;;;;;37.72;21.23;;;;;;;7.70;100.00;162577.44;5052713;28;20032;-55
2022/03/30 09:06:53;;;;;;;46.47;20.27;;;;;;;8.31;100.00;162736.41;5050957;28;20037;-55
2022/03/30 09:09:38;;;;;;;35.08;19.83;;;;;;;8.91;100.00;162894.22;5058123;28;20563;-55
2022/03/30 09:12:09;;;;;;;30.33;16.90;;;;;;;8.29;100.00;162731.03;5070520;28;20058;-55
2022/03/30 09:14:37;;;;;;;31.50;16.80;;;;;;;8.00;100.00;162656.91;5064730;28;20020;-55
2022/03/30 09:17:05;;;;;;;38.05;16.77;;;;;;;7.66;100.00;162568.00;5054566;28;20404;-55
2022/03/30 09:19:36;;;;;;;31.40;18.55;;;;;;;7.68;100.00;162572.03;5070138;28;20529;-55
2022/03/30 09:22:03;;;;;;;33.92;16.55;;;;;;;8.67;100.00;162830.84;5051010;28;20033;-55
2022/03/30 09:24:39;;;;;;;31.38;15.25;;;;;;;9.72;100.00;163105.91;5063165;28;20443;-55
2022/03/30 09:27:07;;;;;;;29.20;14.80;;;;;;;9.90;100.00;163153.19;5064691;28;20033;-55
2022/03/30 09:29:36;;;;;;;25.73;16.30;;;;;;;10.49;100.00;163307.06;5052407;28;20036;-55
2022/03/30 09:32:04;;;;;;;31.77;16.95;;;;;;;10.93;100.00;163421.78;5055269;28;20161;-55
2022/03/30 09:34:34;;;;;;;20.92;14.20;;;;;;;10.20;100.00;163231.41;5065003;28;20021;-56
2022/03/30 09:37:00;;;;;;;22.58;14.90;;;;;;;10.40;100.00;163284.09;5050728;28;20025;-56
2022/03/30 09:39:31;;;;;;;29.45;14.43;;;;;;;11.70;100.00;163624.38;5051865;28;20043;-56
2022/03/30 09:41:59;;;;;;;22.25;13.70;;;;;;;12.25;100.00;163767.59;5050130;28;20025;-55
2022/03/30 09:44:31;;;;;;;19.95;13.52;;;;;;;12.14;100.00;163739.22;5063452;28;20048;-56
2022/03/30 09:47:05;;;;;;;18.85;10.30;;;;;;;11.86;100.00;163664.91;5050553;28;20021;-55
2022/03/30 09:49:47;;;;;;;23.58;10.95;;;;;;;11.07;100.00;163459.59;5059672;28;20017;-56
2022/03/30 09:52:26;;;;;;;15.18;10.45;;;;;;;10.72;100.00;163367.78;5069559;28;20120;-55
2022/03/30 09:55:00;;;;;;;23.42;13.55;;;;;;;10.46;100.00;163300.28;5071749;28;20024;-56
2022/03/30 09:57:34;;;;;;;20.77;10.90;;;;;;;10.89;100.00;163412.34;5069689;28;20029;-56
2022/03/30 10:00:03;;;;;;;22.25;11.70;;;;;;;11.41;100.00;163548.75;5051631;28;20029;-56
2022/03/30 10:02:45;;;;;;;22.02;11.43;;;;;;;11.00;100.00;163439.34;5048973;28;20043;-55
2022/03/30 10:05:13;;;;;;;21.95;13.30;;;;;;;10.48;100.00;163305.69;5051182;28;20029;-56
2022/03/30 10:07:39;;;;;;;18.48;12.15;;;;;;;9.87;100.00;163143.69;5050236;28;20041;-56
2022/03/30 10:10:07;;;;;;;20.52;13.50;;;;;;;9.02;100.00;162922.53;5051400;28;20075;-56
2022/03/30 10:12:33;;;;;;;35.33;13.13;;;;;;;8.30;100.00;162733.75;5049632;28;20040;-56
2022/03/30 10:14:58;;;;;;;20.02;13.30;;;;;;;8.07;100.00;162674.44;5051606;28;20025;-55
2022/03/30 10:17:25;;;;;;;18.08;10.88;;;;;;;8.04;100.00;162666.34;5049888;28;20056;-55
2022/03/30 10:19:57;;;;;;;19.35;10.95;;;;;;;8.02;100.00;162662.31;5051146;28;20538;-55
2022/03/30 10:23:04;;;;;;;17.27;11.27;;;;;;;8.21;100.00;162712.19;5054066;28;20056;-56
2022/03/30 10:25:57;;;;;;;12.40;9.13;;;;;;;8.34;100.00;162745.84;5070859;28;20487;-55
2022/03/30 10:28:50;;;;;;;14.18;8.45;;;;;;;8.72;100.00;162844.31;5069232;28;20116;-56
2022/03/30 10:31:20;;;;;;;11.30;8.82;;;;;;;8.36;100.00;162749.91;5069722;28;20103;-56
2022/03/30 10:33:46;;;;;;;18.98;8.45;;;;;;;8.95;100.00;162903.66;5069075;28;20020;-55
2022/03/30 10:36:26;;;;;;;13.23;7.30;;;;;;;9.47;100.00;163039.81;5069723;28;20031;-55
2022/03/30 10:39:11;;;;;;;8.23;6.90;;;;;;;9.99;100.00;163176.09;5071138;28;20024;-55
2022/03/30 10:42:07;;;;;;;10.38;5.57;;;;;;;9.25;100.00;162983.19;5069485;28;20044;-55
2022/03/30 10:44:36;;;;;;;13.30;7.15;;;;;;;9.30;100.00;162995.34;5065658;28;20025;-55
2022/03/30 10:47:16;;;;;;;9.50;7.18;;;;;;;9.26;100.00;162984.56;5058890;28;20507;-55
2022/03/30 10:49:48;;;;;;;13.77;8.02;;;;;;;9.61;100.00;163076.28;5070982;28;20028;-55
2022/03/30 10:52:49;;;;;;;14.18;8.68;;;;;;;9.19;100.00;162968.38;5062310;28;20056;-55
2022/03/30 10:55:14;;;;;;;15.15;8.93;;;;;;;8.56;100.00;162803.88;5047368;28;20021;-55
2022/03/30 10:57:53;;;;;;;11.15;7.82;;;;;;;8.61;100.00;162816.00;5064375;28;20633;-55
2022/03/30 11:00:24;;;;;;;9.40;6.40;;;;;;;8.40;100.00;162760.69;5069933;28;20031;-55
2022/03/30 11:02:50;;;;;;;13.80;7.72;;;;;;;8.26;100.00;162724.31;5068697;28;20177;-55
2022/03/30 11:05:24;;;;;;;17.15;10.52;;;;;;;8.45;100.00;162774.13;5074514;28;20033;-55
2022/03/30 11:07:49;;;;;;;11.45;8.00;;;;;;;8.67;100.00;162830.84;5073543;28;20123;-55
2022/03/30 11:10:21;;;;;;;18.77;8.60;;;;;;;8.79;100.00;162863.19;5074664;28;20492;-56
2022/03/30 11:13:06;;;;;;;14.85;9.13;;;;;;;8.78;100.00;162859.16;5073292;28;20125;-55
2022/03/30 11:15:58;;;;;;;11.43;9.18;;;;;;;8.50;100.00;162787.72;5073578;28;20021;-55